sensor_id;sensor_type;location;lat;lon;timestamp;noise_LAeq;noise_LA_min;noise_LA_max;noise_LA01;noise_LA95
69611;Laerm;56817;52.302;4.844;2022-12-20T00:00:05;47.44;43.64;50.53;;
69611;Laerm;56817;52.302;4.844;2022-12-20T00:00:16;46.51;41.26;50.02;;
69611;Laerm;56817;52.302;4.844;2022-12-20T00:00:26;46.29;41.81;50.84;;
69611;Laerm;56817;52.302;4.844;2022-12-20T00:00:40;46.69;42.86;50.46;;
69611;Laerm;56817;52.302;4.844;2022-12-20T00:00:51;46.43;43.01;50.38;;
69611;Laerm;56817;52.302;4.844;2022-12-20T00:01:12;46.23;42.58;49.81;;
69611;Laerm;56817;52.302;4.844;2022-12-20T00:01:24;46.04;41.37;49.66;;
69611;Laerm;56817;52.302;4.844;2022-12-20T00:01:34;45.63;41.69;49.33;;
69611;Laerm;56817;52.302;4.844;2022-12-20T00:01:45;46.47;41.95;54.45;;
69611;Laerm;56817;52.302;4.844;2022-12-20T00:01:55;45.83;40.64;49.94;;
69611;Laerm;56817;52.302;4.844;2022-12-20T00:02:05;45.64;41.62;49.49;;
69611;Laerm;56817;52.302;4.844;2022-12-20T00:02:15;45.72;40.01;49.46;;
69611;Laerm;56817;52.302;4.844;2022-12-20T00:02:26;45.82;40.96;50.35;;
69611;Laerm;56817;52.302;4.844;2022-12-20T00:02:36;46.16;41.56;49.64;;
69611;Laerm;56817;52.302;4.844;2022-12-20T00:02:46;46.26;41.92;49.90;;
69611;Laerm;56817;52.302;4.844;2022-12-20T00:02:56;46.16;41.52;49.87;;
69611;Laerm;56817;52.302;4.844;2022-12-20T00:03:07;44.28;40.04;50.33;;
69611;Laerm;56817;52.302;4.844;2022-12-20T00:03:18;45.99;41.31;49.92;;
69611;Laerm;56817;52.302;4.844;2022-12-20T00:03:29;45.75;40.75;51.03;;
69611;Laerm;56817;52.302;4.844;2022-12-20T00:03:39;45.90;42.08;49.13;;
69611;Laerm;56817;52.302;4.844;2022-12-20T00:03:50;45.61;40.56;50.42;;
69611;Laerm;56817;52.302;4.844;2022-12-20T00:04:03;45.38;39.89;50.38;;
69611;Laerm;56817;52.302;4.844;2022-12-20T00:04:14;46.25;41.10;51.49;;
69611;Laerm;56817;52.302;4.844;2022-12-20T00:04:24;45.65;41.08;49.62;;
69611;Laerm;56817;52.302;4.844;2022-12-20T00:04:35;46.36;42.29;50.51;;
69611;Laerm;56817;52.302;4.844;2022-12-20T00:04:45;46.66;43.73;50.51;;
69611;Laerm;56817;52.302;4.844;2022-12-20T00:04:55;46.06;43.17;49.55;;
69611;Laerm;56817;52.302;4.844;2022-12-20T00:05:05;46.51;42.82;49.89;;
69611;Laerm;56817;52.302;4.844;2022-12-20T00:05:16;45.89;42.07;49.96;;
69611;Laerm;56817;52.302;4.844;2022-12-20T00:05:26;46.11;41.09;53.83;;
69611;Laerm;56817;52.302;4.844;2022-12-20T00:05:37;46.12;42.05;51.09;;
69611;Laerm;56817;52.302;4.844;2022-12-20T00:05:47;45.64;41.00;49.10;;
69611;Laerm;56817;52.302;4.844;2022-12-20T00:05:57;46.02;41.37;49.26;;
69611;Laerm;56817;52.302;4.844;2022-12-20T00:06:08;46.24;41.87;51.44;;
69611;Laerm;56817;52.302;4.844;2022-12-20T00:06:20;47.74;43.22;51.70;;
69611;Laerm;56817;52.302;4.844;2022-12-20T00:06:30;47.15;43.02;50.56;;
69611;Laerm;56817;52.302;4.844;2022-12-20T00:06:42;46.31;41.84;50.21;;
69611;Laerm;56817;52.302;4.844;2022-12-20T00:06:52;45.93;41.87;49.56;;
69611;Laerm;56817;52.302;4.844;2022-12-20T00:07:02;45.75;42.01;48.81;;
69611;Laerm;56817;52.302;4.844;2022-12-20T00:07:13;45.91;40.80;50.80;;
69611;Laerm;56817;52.302;4.844;2022-12-20T00:07:23;45.64;41.43;51.66;;
69611;Laerm;56817;52.302;4.844;2022-12-20T00:07:33;46.11;41.50;49.93;;
69611;Laerm;56817;52.302;4.844;2022-12-20T00:07:44;45.71;40.86;49.46;;
69611;Laerm;56817;52.302;4.844;2022-12-20T00:07:54;45.76;41.12;49.65;;
69611;Laerm;56817;52.302;4.844;2022-12-20T00:08:05;45.75;40.30;50.33;;
69611;Laerm;56817;52.302;4.844;2022-12-20T00:08:15;45.43;41.39;50.33;;
69611;Laerm;56817;52.302;4.844;2022-12-20T00:08:26;45.23;40.34;49.77;;
69611;Laerm;56817;52.302;4.844;2022-12-20T00:08:36;45.99;41.96;49.91;;
69611;Laerm;56817;52.302;4.844;2022-12-20T00:08:51;46.54;42.37;50.01;;
69611;Laerm;56817;52.302;4.844;2022-12-20T00:09:03;46.48;40.79;51.14;;
69611;Laerm;56817;52.302;4.844;2022-12-20T00:09:14;45.66;41.08;48.90;;
69611;Laerm;56817;52.302;4.844;2022-12-20T00:09:24;46.15;41.47;50.20;;
69611;Laerm;56817;52.302;4.844;2022-12-20T00:09:34;46.33;40.24;50.81;;
69611;Laerm;56817;52.302;4.844;2022-12-20T00:09:45;44.22;39.61;49.03;;
69611;Laerm;56817;52.302;4.844;2022-12-20T00:09:55;45.31;38.85;49.81;;
69611;Laerm;56817;52.302;4.844;2022-12-20T00:10:05;46.00;40.93;51.96;;
69611;Laerm;56817;52.302;4.844;2022-12-20T00:10:16;46.11;41.60;50.01;;
69611;Laerm;56817;52.302;4.844;2022-12-20T00:10:26;46.04;40.18;50.32;;
69611;Laerm;56817;52.302;4.844;2022-12-20T00:10:37;45.90;40.71;50.12;;
69611;Laerm;56817;52.302;4.844;2022-12-20T00:10:47;45.85;40.04;50.50;;
69611;Laerm;56817;52.302;4.844;2022-12-20T00:10:58;45.81;40.34;50.37;;
69611;Laerm;56817;52.302;4.844;2022-12-20T00:11:09;45.41;40.33;49.73;;
69611;Laerm;56817;52.302;4.844;2022-12-20T00:11:19;45.22;40.94;49.24;;
69611;Laerm;56817;52.302;4.844;2022-12-20T00:11:30;45.84;39.86;49.16;;
69611;Laerm;56817;52.302;4.844;2022-12-20T00:11:40;46.18;41.01;50.00;;
69611;Laerm;56817;52.302;4.844;2022-12-20T00:11:50;45.97;41.99;49.48;;
69611;Laerm;56817;52.302;4.844;2022-12-20T00:12:01;45.24;40.50;50.01;;
69611;Laerm;56817;52.302;4.844;2022-12-20T00:12:11;45.70;41.28;49.61;;
69611;Laerm;56817;52.302;4.844;2022-12-20T00:12:21;46.31;40.16;50.53;;
69611;Laerm;56817;52.302;4.844;2022-12-20T00:12:31;46.30;42.14;49.32;;
69611;Laerm;56817;52.302;4.844;2022-12-20T00:12:42;47.28;43.26;50.88;;
69611;Laerm;56817;52.302;4.844;2022-12-20T00:12:52;45.99;41.48;50.05;;
69611;Laerm;56817;52.302;4.844;2022-12-20T00:13:02;45.94;42.38;50.05;;
69611;Laerm;56817;52.302;4.844;2022-12-20T00:13:13;45.98;40.83;50.19;;
69611;Laerm;56817;52.302;4.844;2022-12-20T00:13:23;45.83;42.31;49.06;;
69611;Laerm;56817;52.302;4.844;2022-12-20T00:13:34;46.37;41.80;51.22;;
69611;Laerm;56817;52.302;4.844;2022-12-20T00:13:45;46.08;41.29;49.81;;
69611;Laerm;56817;52.302;4.844;2022-12-20T00:13:56;45.96;41.75;49.29;;
69611;Laerm;56817;52.302;4.844;2022-12-20T00:14:07;46.16;41.78;50.40;;
69611;Laerm;56817;52.302;4.844;2022-12-20T00:14:19;46.58;42.61;50.02;;
69611;Laerm;56817;52.302;4.844;2022-12-20T00:14:29;46.51;42.54;50.64;;
69611;Laerm;56817;52.302;4.844;2022-12-20T00:14:40;46.35;42.37;50.23;;
69611;Laerm;56817;52.302;4.844;2022-12-20T00:14:50;46.06;42.46;50.15;;
69611;Laerm;56817;52.302;4.844;2022-12-20T00:15:00;46.16;42.28;49.97;;
69611;Laerm;56817;52.302;4.844;2022-12-20T00:15:10;45.97;41.99;49.16;;
69611;Laerm;56817;52.302;4.844;2022-12-20T00:15:21;46.05;41.41;50.42;;
69611;Laerm;56817;52.302;4.844;2022-12-20T00:15:31;45.14;40.72;48.95;;
69611;Laerm;56817;52.302;4.844;2022-12-20T00:15:41;46.69;42.86;49.61;;
69611;Laerm;56817;52.302;4.844;2022-12-20T00:16:25;46.62;41.80;49.70;;
69611;Laerm;56817;52.302;4.844;2022-12-20T00:16:28;45.86;40.64;50.46;;
69611;Laerm;56817;52.302;4.844;2022-12-20T00:16:38;46.42;42.10;50.27;;
69611;Laerm;56817;52.302;4.844;2022-12-20T00:16:49;46.22;41.69;49.80;;
69611;Laerm;56817;52.302;4.844;2022-12-20T00:16:59;45.84;41.24;49.85;;
69611;Laerm;56817;52.302;4.844;2022-12-20T00:17:09;46.02;41.85;49.63;;
69611;Laerm;56817;52.302;4.844;2022-12-20T00:17:20;47.03;42.22;50.26;;
69611;Laerm;56817;52.302;4.844;2022-12-20T00:17:30;46.50;41.78;50.42;;
69611;Laerm;56817;52.302;4.844;2022-12-20T00:17:40;46.50;42.07;49.65;;
69611;Laerm;56817;52.302;4.844;2022-12-20T00:17:51;46.41;40.39;50.32;;
69611;Laerm;56817;52.302;4.844;2022-12-20T00:18:01;45.83;41.55;50.51;;
69611;Laerm;56817;52.302;4.844;2022-12-20T00:18:12;46.34;42.42;51.09;;
69611;Laerm;56817;52.302;4.844;2022-12-20T00:18:22;46.57;41.48;50.07;;
69611;Laerm;56817;52.302;4.844;2022-12-20T00:18:32;45.80;41.35;50.29;;
69611;Laerm;56817;52.302;4.844;2022-12-20T00:18:42;46.09;41.70;49.95;;
69611;Laerm;56817;52.302;4.844;2022-12-20T00:18:58;45.11;40.54;48.95;;
69611;Laerm;56817;52.302;4.844;2022-12-20T00:19:09;45.25;39.38;49.50;;
69611;Laerm;56817;52.302;4.844;2022-12-20T00:19:20;45.18;39.21;49.28;;
69611;Laerm;56817;52.302;4.844;2022-12-20T00:19:30;45.08;39.89;49.62;;
69611;Laerm;56817;52.302;4.844;2022-12-20T00:19:42;44.85;39.82;50.14;;
69611;Laerm;56817;52.302;4.844;2022-12-20T00:19:52;45.09;39.38;49.79;;
69611;Laerm;56817;52.302;4.844;2022-12-20T00:20:03;45.44;41.89;49.68;;
69611;Laerm;56817;52.302;4.844;2022-12-20T00:20:13;45.30;41.33;49.08;;
69611;Laerm;56817;52.302;4.844;2022-12-20T00:20:24;45.66;39.85;49.33;;
69611;Laerm;56817;52.302;4.844;2022-12-20T00:20:34;45.79;41.17;50.81;;
69611;Laerm;56817;52.302;4.844;2022-12-20T00:20:45;46.05;41.76;49.24;;
69611;Laerm;56817;52.302;4.844;2022-12-20T00:20:58;46.06;41.24;51.00;;
69611;Laerm;56817;52.302;4.844;2022-12-20T00:21:10;45.37;40.79;49.68;;
69611;Laerm;56817;52.302;4.844;2022-12-20T00:21:20;45.86;39.37;49.93;;
69611;Laerm;56817;52.302;4.844;2022-12-20T00:21:31;45.95;42.43;50.72;;
69611;Laerm;56817;52.302;4.844;2022-12-20T00:21:42;45.38;41.68;49.16;;
69611;Laerm;56817;52.302;4.844;2022-12-20T00:21:52;45.85;42.45;49.61;;
69611;Laerm;56817;52.302;4.844;2022-12-20T00:22:03;45.74;42.30;50.99;;
69611;Laerm;56817;52.302;4.844;2022-12-20T00:22:13;45.41;40.47;49.21;;
69611;Laerm;56817;52.302;4.844;2022-12-20T00:22:23;45.56;41.44;49.38;;
69611;Laerm;56817;52.302;4.844;2022-12-20T00:22:33;45.93;41.30;49.42;;
69611;Laerm;56817;52.302;4.844;2022-12-20T00:22:44;46.07;42.10;49.45;;
69611;Laerm;56817;52.302;4.844;2022-12-20T00:22:54;45.79;41.26;50.59;;
69611;Laerm;56817;52.302;4.844;2022-12-20T00:23:05;45.90;40.65;50.22;;
69611;Laerm;56817;52.302;4.844;2022-12-20T00:23:15;46.62;42.51;51.37;;
69611;Laerm;56817;52.302;4.844;2022-12-20T00:23:25;46.22;41.60;50.26;;
69611;Laerm;56817;52.302;4.844;2022-12-20T00:23:36;46.19;42.23;49.77;;
69611;Laerm;56817;52.302;4.844;2022-12-20T00:23:47;45.82;41.11;49.51;;
69611;Laerm;56817;52.302;4.844;2022-12-20T00:23:57;45.03;39.85;50.01;;
69611;Laerm;56817;52.302;4.844;2022-12-20T00:24:08;45.54;40.61;49.98;;
69611;Laerm;56817;52.302;4.844;2022-12-20T00:24:19;45.83;41.87;49.41;;
69611;Laerm;56817;52.302;4.844;2022-12-20T00:24:29;45.49;40.64;49.99;;
69611;Laerm;56817;52.302;4.844;2022-12-20T00:24:39;46.02;41.88;50.85;;
69611;Laerm;56817;52.302;4.844;2022-12-20T00:24:50;46.34;40.53;51.42;;
69611;Laerm;56817;52.302;4.844;2022-12-20T00:25:00;45.17;40.78;48.65;;
69611;Laerm;56817;52.302;4.844;2022-12-20T00:25:10;45.54;41.43;49.14;;
69611;Laerm;56817;52.302;4.844;2022-12-20T00:25:20;45.83;40.95;49.38;;
69611;Laerm;56817;52.302;4.844;2022-12-20T00:25:31;46.13;41.75;49.92;;
69611;Laerm;56817;52.302;4.844;2022-12-20T00:25:41;45.26;41.22;49.68;;
69611;Laerm;56817;52.302;4.844;2022-12-20T00:25:51;45.61;38.61;49.46;;
69611;Laerm;56817;52.302;4.844;2022-12-20T00:26:05;45.17;40.14;50.12;;
69611;Laerm;56817;52.302;4.844;2022-12-20T00:26:17;45.73;41.36;50.00;;
69611;Laerm;56817;52.302;4.844;2022-12-20T00:26:29;45.80;38.98;49.47;;
69611;Laerm;56817;52.302;4.844;2022-12-20T00:26:39;45.09;39.96;49.28;;
69611;Laerm;56817;52.302;4.844;2022-12-20T00:26:49;41.34;38.40;47.47;;
69611;Laerm;56817;52.302;4.844;2022-12-20T00:27:00;40.94;38.12;47.39;;
69611;Laerm;56817;52.302;4.844;2022-12-20T00:27:10;41.30;38.66;45.57;;
69611;Laerm;56817;52.302;4.844;2022-12-20T00:27:20;41.83;38.11;47.57;;
69611;Laerm;56817;52.302;4.844;2022-12-20T00:27:30;45.98;42.09;50.50;;
69611;Laerm;56817;52.302;4.844;2022-12-20T00:27:41;45.42;41.27;48.97;;
69611;Laerm;56817;52.302;4.844;2022-12-20T00:27:51;45.36;40.21;50.29;;
69611;Laerm;56817;52.302;4.844;2022-12-20T00:28:01;45.25;39.10;48.82;;
69611;Laerm;56817;52.302;4.844;2022-12-20T00:28:13;45.29;41.40;50.20;;
69611;Laerm;56817;52.302;4.844;2022-12-20T00:28:23;45.47;41.74;49.88;;
69611;Laerm;56817;52.302;4.844;2022-12-20T00:28:33;46.07;41.51;50.25;;
69611;Laerm;56817;52.302;4.844;2022-12-20T00:28:44;45.58;41.17;49.60;;
69611;Laerm;56817;52.302;4.844;2022-12-20T00:28:55;44.25;39.86;49.01;;
69611;Laerm;56817;52.302;4.844;2022-12-20T00:29:05;44.72;39.24;48.59;;
69611;Laerm;56817;52.302;4.844;2022-12-20T00:29:16;45.25;40.23;50.47;;
69611;Laerm;56817;52.302;4.844;2022-12-20T00:29:27;45.25;40.88;49.42;;
69611;Laerm;56817;52.302;4.844;2022-12-20T00:29:37;45.58;40.45;49.23;;
69611;Laerm;56817;52.302;4.844;2022-12-20T00:29:47;45.36;39.34;49.97;;
69611;Laerm;56817;52.302;4.844;2022-12-20T00:29:57;45.25;40.10;49.43;;
69611;Laerm;56817;52.302;4.844;2022-12-20T00:30:08;45.64;40.59;49.53;;
69611;Laerm;56817;52.302;4.844;2022-12-20T00:30:18;45.97;41.35;49.99;;
69611;Laerm;56817;52.302;4.844;2022-12-20T00:30:29;45.54;38.04;51.65;;
69611;Laerm;56817;52.302;4.844;2022-12-20T00:30:39;45.35;39.59;50.96;;
69611;Laerm;56817;52.302;4.844;2022-12-20T00:30:52;45.22;39.35;49.06;;
69611;Laerm;56817;52.302;4.844;2022-12-20T00:31:03;44.98;40.96;49.34;;
69611;Laerm;56817;52.302;4.844;2022-12-20T00:31:14;45.12;39.92;49.57;;
69611;Laerm;56817;52.302;4.844;2022-12-20T00:31:25;45.77;40.66;50.20;;
69611;Laerm;56817;52.302;4.844;2022-12-20T00:31:36;44.38;38.46;49.53;;
69611;Laerm;56817;52.302;4.844;2022-12-20T00:31:46;44.60;39.16;49.60;;
69611;Laerm;56817;52.302;4.844;2022-12-20T00:31:56;44.09;38.93;48.42;;
69611;Laerm;56817;52.302;4.844;2022-12-20T00:32:07;44.75;37.97;50.38;;
69611;Laerm;56817;52.302;4.844;2022-12-20T00:32:17;43.56;38.26;48.63;;
69611;Laerm;56817;52.302;4.844;2022-12-20T00:32:27;44.01;38.43;49.38;;
69611;Laerm;56817;52.302;4.844;2022-12-20T00:32:37;45.11;40.01;49.33;;
69611;Laerm;56817;52.302;4.844;2022-12-20T00:32:48;45.68;41.05;49.92;;
69611;Laerm;56817;52.302;4.844;2022-12-20T00:32:58;46.64;42.64;50.59;;
69611;Laerm;56817;52.302;4.844;2022-12-20T00:33:08;45.70;40.22;50.32;;
69611;Laerm;56817;52.302;4.844;2022-12-20T00:33:19;45.09;39.46;49.45;;
69611;Laerm;56817;52.302;4.844;2022-12-20T00:33:29;44.77;41.06;49.65;;
69611;Laerm;56817;52.302;4.844;2022-12-20T00:33:39;45.92;41.48;50.17;;
69611;Laerm;56817;52.302;4.844;2022-12-20T00:33:51;45.52;40.42;50.60;;
69611;Laerm;56817;52.302;4.844;2022-12-20T00:34:01;45.44;39.93;50.23;;
69611;Laerm;56817;52.302;4.844;2022-12-20T00:34:12;45.54;39.68;49.29;;
69611;Laerm;56817;52.302;4.844;2022-12-20T00:34:22;44.72;39.46;49.31;;
69611;Laerm;56817;52.302;4.844;2022-12-20T00:34:32;43.52;38.38;50.11;;
69611;Laerm;56817;52.302;4.844;2022-12-20T00:34:43;46.39;38.77;50.90;;
69611;Laerm;56817;52.302;4.844;2022-12-20T00:34:53;45.20;38.98;49.45;;
69611;Laerm;56817;52.302;4.844;2022-12-20T00:35:03;45.35;39.52;49.72;;
69611;Laerm;56817;52.302;4.844;2022-12-20T00:35:14;45.43;39.58;49.44;;
69611;Laerm;56817;52.302;4.844;2022-12-20T00:35:24;44.36;38.94;48.90;;
69611;Laerm;56817;52.302;4.844;2022-12-20T00:35:34;44.73;39.61;49.64;;
69611;Laerm;56817;52.302;4.844;2022-12-20T00:35:45;46.15;39.66;50.81;;
69611;Laerm;56817;52.302;4.844;2022-12-20T00:35:55;45.11;40.97;48.80;;
69611;Laerm;56817;52.302;4.844;2022-12-20T00:36:06;45.28;39.54;50.03;;
69611;Laerm;56817;52.302;4.844;2022-12-20T00:36:17;45.34;39.44;49.53;;
69611;Laerm;56817;52.302;4.844;2022-12-20T00:36:28;45.54;39.95;49.53;;
69611;Laerm;56817;52.302;4.844;2022-12-20T00:36:39;44.96;39.33;49.16;;
69611;Laerm;56817;52.302;4.844;2022-12-20T00:36:49;45.06;39.42;50.36;;
69611;Laerm;56817;52.302;4.844;2022-12-20T00:36:59;45.56;40.57;50.78;;
69611;Laerm;56817;52.302;4.844;2022-12-20T00:37:09;45.29;38.97;48.96;;
69611;Laerm;56817;52.302;4.844;2022-12-20T00:37:20;45.13;39.41;49.51;;
69611;Laerm;56817;52.302;4.844;2022-12-20T00:37:30;45.20;40.98;49.17;;
69611;Laerm;56817;52.302;4.844;2022-12-20T00:37:40;45.49;40.08;49.68;;
69611;Laerm;56817;52.302;4.844;2022-12-20T00:37:51;45.36;40.62;50.21;;
69611;Laerm;56817;52.302;4.844;2022-12-20T00:38:01;45.72;40.13;49.74;;
69611;Laerm;56817;52.302;4.844;2022-12-20T00:38:12;45.23;39.20;50.13;;
69611;Laerm;56817;52.302;4.844;2022-12-20T00:38:22;45.66;39.82;50.80;;
69611;Laerm;56817;52.302;4.844;2022-12-20T00:38:33;45.24;40.09;49.19;;
69611;Laerm;56817;52.302;4.844;2022-12-20T00:38:44;45.74;41.82;50.04;;
69611;Laerm;56817;52.302;4.844;2022-12-20T00:38:56;45.44;41.66;49.10;;
69611;Laerm;56817;52.302;4.844;2022-12-20T00:39:06;45.65;41.64;49.71;;
69611;Laerm;56817;52.302;4.844;2022-12-20T00:39:17;45.22;39.95;49.25;;
69611;Laerm;56817;52.302;4.844;2022-12-20T00:39:27;46.00;41.26;51.21;;
69611;Laerm;56817;52.302;4.844;2022-12-20T00:39:37;45.91;41.45;49.35;;
69611;Laerm;56817;52.302;4.844;2022-12-20T00:39:47;45.81;42.03;49.68;;
69611;Laerm;56817;52.302;4.844;2022-12-20T00:39:58;45.60;40.87;48.73;;
69611;Laerm;56817;52.302;4.844;2022-12-20T00:40:08;46.46;42.38;50.10;;
69611;Laerm;56817;52.302;4.844;2022-12-20T00:40:18;45.69;39.93;50.29;;
69611;Laerm;56817;52.302;4.844;2022-12-20T00:40:28;45.00;40.18;48.35;;
69611;Laerm;56817;52.302;4.844;2022-12-20T00:40:39;45.16;39.49;49.17;;
69611;Laerm;56817;52.302;4.844;2022-12-20T00:41:30;46.13;38.75;56.64;;
69611;Laerm;56817;52.302;4.844;2022-12-20T00:41:41;46.68;40.72;52.27;;
69611;Laerm;56817;52.302;4.844;2022-12-20T00:41:51;45.65;41.86;52.81;;
69611;Laerm;56817;52.302;4.844;2022-12-20T00:42:01;46.05;41.67;50.88;;
69611;Laerm;56817;52.302;4.844;2022-12-20T00:42:12;45.79;39.64;50.79;;
69611;Laerm;56817;52.302;4.844;2022-12-20T00:42:22;45.45;40.22;52.49;;
69611;Laerm;56817;52.302;4.844;2022-12-20T00:42:32;46.31;41.65;50.24;;
69611;Laerm;56817;52.302;4.844;2022-12-20T00:42:42;45.60;40.28;49.74;;
69611;Laerm;56817;52.302;4.844;2022-12-20T00:42:53;45.76;41.42;49.67;;
69611;Laerm;56817;52.302;4.844;2022-12-20T00:43:03;45.79;39.32;50.04;;
69611;Laerm;56817;52.302;4.844;2022-12-20T00:43:13;47.23;41.80;51.08;;
69611;Laerm;56817;52.302;4.844;2022-12-20T00:43:23;46.40;42.04;49.93;;
69611;Laerm;56817;52.302;4.844;2022-12-20T00:43:34;46.61;41.51;51.75;;
69611;Laerm;56817;52.302;4.844;2022-12-20T00:43:44;46.31;40.59;50.43;;
69611;Laerm;56817;52.302;4.844;2022-12-20T00:43:55;45.85;41.01;51.67;;
69611;Laerm;56817;52.302;4.844;2022-12-20T00:44:05;45.04;39.77;49.42;;
69611;Laerm;56817;52.302;4.844;2022-12-20T00:44:16;46.01;40.15;50.13;;
69611;Laerm;56817;52.302;4.844;2022-12-20T00:44:26;45.53;40.45;49.20;;
69611;Laerm;56817;52.302;4.844;2022-12-20T00:44:37;45.69;41.04;49.22;;
69611;Laerm;56817;52.302;4.844;2022-12-20T00:44:47;45.51;40.29;49.11;;
69611;Laerm;56817;52.302;4.844;2022-12-20T00:44:58;45.83;41.03;50.26;;
69611;Laerm;56817;52.302;4.844;2022-12-20T00:45:08;45.99;40.12;50.73;;
69611;Laerm;56817;52.302;4.844;2022-12-20T00:45:18;45.89;40.77;50.92;;
69611;Laerm;56817;52.302;4.844;2022-12-20T00:45:28;45.82;40.79;50.83;;
69611;Laerm;56817;52.302;4.844;2022-12-20T00:45:39;46.22;41.71;50.34;;
69611;Laerm;56817;52.302;4.844;2022-12-20T00:45:49;45.52;40.69;49.64;;
69611;Laerm;56817;52.302;4.844;2022-12-20T00:45:59;45.34;40.84;49.50;;
69611;Laerm;56817;52.302;4.844;2022-12-20T00:46:10;45.24;39.55;51.21;;
69611;Laerm;56817;52.302;4.844;2022-12-20T00:46:21;45.17;39.04;49.46;;
69611;Laerm;56817;52.302;4.844;2022-12-20T00:46:32;45.40;39.94;48.74;;
69611;Laerm;56817;52.302;4.844;2022-12-20T00:46:43;45.30;39.66;51.06;;
69611;Laerm;56817;52.302;4.844;2022-12-20T00:46:53;45.43;39.33;49.60;;
69611;Laerm;56817;52.302;4.844;2022-12-20T00:47:03;45.48;40.38;49.72;;
69611;Laerm;56817;52.302;4.844;2022-12-20T00:47:14;45.80;40.15;49.76;;
69611;Laerm;56817;52.302;4.844;2022-12-20T00:47:24;45.49;40.29;51.20;;
69611;Laerm;56817;52.302;4.844;2022-12-20T00:47:34;45.73;40.58;49.58;;
69611;Laerm;56817;52.302;4.844;2022-12-20T00:47:44;45.61;40.75;50.47;;
69611;Laerm;56817;52.302;4.844;2022-12-20T00:47:54;45.76;40.89;50.97;;
69611;Laerm;56817;52.302;4.844;2022-12-20T00:48:05;45.95;40.45;51.57;;
69611;Laerm;56817;52.302;4.844;2022-12-20T00:48:15;45.54;41.54;49.52;;
69611;Laerm;56817;52.302;4.844;2022-12-20T00:48:26;44.48;39.49;49.17;;
69611;Laerm;56817;52.302;4.844;2022-12-20T00:48:36;45.60;39.46;50.63;;
69611;Laerm;56817;52.302;4.844;2022-12-20T00:48:47;45.31;40.11;49.92;;
69611;Laerm;56817;52.302;4.844;2022-12-20T00:48:57;45.24;40.61;49.70;;
69611;Laerm;56817;52.302;4.844;2022-12-20T00:49:07;45.90;41.01;49.79;;
69611;Laerm;56817;52.302;4.844;2022-12-20T00:49:18;45.39;40.52;49.84;;
69611;Laerm;56817;52.302;4.844;2022-12-20T00:49:28;46.13;40.50;49.69;;
69611;Laerm;56817;52.302;4.844;2022-12-20T00:49:39;45.71;40.25;51.34;;
69611;Laerm;56817;52.302;4.844;2022-12-20T00:49:50;45.76;41.20;50.84;;
69611;Laerm;56817;52.302;4.844;2022-12-20T00:50:00;45.36;40.73;48.82;;
69611;Laerm;56817;52.302;4.844;2022-12-20T00:50:10;45.89;38.63;50.49;;
69611;Laerm;56817;52.302;4.844;2022-12-20T00:50:20;45.57;39.99;49.68;;
69611;Laerm;56817;52.302;4.844;2022-12-20T00:50:31;45.12;39.77;49.45;;
69611;Laerm;56817;52.302;4.844;2022-12-20T00:50:41;44.73;39.51;49.83;;
69611;Laerm;56817;52.302;4.844;2022-12-20T00:50:51;45.30;39.82;50.37;;
69611;Laerm;56817;52.302;4.844;2022-12-20T00:51:06;45.25;37.23;49.23;;
69611;Laerm;56817;52.302;4.844;2022-12-20T00:51:18;45.60;38.44;50.30;;
69611;Laerm;56817;52.302;4.844;2022-12-20T00:51:29;45.45;40.36;49.91;;
69611;Laerm;56817;52.302;4.844;2022-12-20T00:51:39;45.62;40.24;49.97;;
69611;Laerm;56817;52.302;4.844;2022-12-20T00:51:49;46.25;40.70;52.79;;
69611;Laerm;56817;52.302;4.844;2022-12-20T00:51:59;46.11;41.41;53.89;;
69611;Laerm;56817;52.302;4.844;2022-12-20T00:52:10;45.93;40.78;49.34;;
69611;Laerm;56817;52.302;4.844;2022-12-20T00:52:20;46.30;41.52;50.34;;
69611;Laerm;56817;52.302;4.844;2022-12-20T00:52:30;45.58;40.51;50.13;;
69611;Laerm;56817;52.302;4.844;2022-12-20T00:52:41;45.65;40.45;49.57;;
69611;Laerm;56817;52.302;4.844;2022-12-20T00:52:51;45.99;41.81;52.37;;
69611;Laerm;56817;52.302;4.844;2022-12-20T00:53:01;45.77;41.21;49.98;;
69611;Laerm;56817;52.302;4.844;2022-12-20T00:53:12;45.97;40.90;50.17;;
69611;Laerm;56817;52.302;4.844;2022-12-20T00:53:22;45.80;40.96;51.05;;
69611;Laerm;56817;52.302;4.844;2022-12-20T00:53:32;45.72;38.95;50.28;;
69611;Laerm;56817;52.302;4.844;2022-12-20T00:53:43;45.85;41.53;50.63;;
69611;Laerm;56817;52.302;4.844;2022-12-20T00:53:53;46.33;41.60;50.01;;
69611;Laerm;56817;52.302;4.844;2022-12-20T00:54:04;45.55;41.29;51.45;;
69611;Laerm;56817;52.302;4.844;2022-12-20T00:54:14;45.57;40.35;50.52;;
69611;Laerm;56817;52.302;4.844;2022-12-20T00:54:24;46.00;40.96;50.59;;
69611;Laerm;56817;52.302;4.844;2022-12-20T00:54:34;46.04;41.07;54.58;;
69611;Laerm;56817;52.302;4.844;2022-12-20T00:54:45;46.06;39.35;51.57;;
69611;Laerm;56817;52.302;4.844;2022-12-20T00:54:55;46.29;40.45;54.58;;
69611;Laerm;56817;52.302;4.844;2022-12-20T00:55:05;45.65;40.18;53.57;;
69611;Laerm;56817;52.302;4.844;2022-12-20T00:55:16;46.42;41.23;55.42;;
69611;Laerm;56817;52.302;4.844;2022-12-20T00:55:26;46.33;39.03;60.52;;
69611;Laerm;56817;52.302;4.844;2022-12-20T00:55:40;46.30;41.78;55.84;;
69611;Laerm;56817;52.302;4.844;2022-12-20T00:55:50;46.82;40.81;57.48;;
69611;Laerm;56817;52.302;4.844;2022-12-20T00:56:00;47.55;42.45;61.97;;
69611;Laerm;56817;52.302;4.844;2022-12-20T00:56:11;47.27;41.90;59.18;;
69611;Laerm;56817;52.302;4.844;2022-12-20T00:56:21;47.19;41.87;59.66;;
69611;Laerm;56817;52.302;4.844;2022-12-20T00:56:31;46.60;42.32;54.75;;
69611;Laerm;56817;52.302;4.844;2022-12-20T00:56:42;46.43;41.50;55.69;;
69611;Laerm;56817;52.302;4.844;2022-12-20T00:56:52;46.98;41.80;54.41;;
69611;Laerm;56817;52.302;4.844;2022-12-20T00:57:02;46.28;41.35;53.87;;
69611;Laerm;56817;52.302;4.844;2022-12-20T00:57:13;56.13;41.74;78.23;;
69611;Laerm;56817;52.302;4.844;2022-12-20T00:57:23;47.02;41.00;56.48;;
69611;Laerm;56817;52.302;4.844;2022-12-20T00:57:33;47.18;42.48;56.16;;
69611;Laerm;56817;52.302;4.844;2022-12-20T00:57:44;47.57;41.85;55.33;;
69611;Laerm;56817;52.302;4.844;2022-12-20T00:57:54;47.72;43.77;54.79;;
69611;Laerm;56817;52.302;4.844;2022-12-20T00:58:04;47.56;42.63;58.56;;
69611;Laerm;56817;52.302;4.844;2022-12-20T00:58:14;48.77;43.22;63.48;;
69611;Laerm;56817;52.302;4.844;2022-12-20T00:58:25;48.01;43.34;58.04;;
69611;Laerm;56817;52.302;4.844;2022-12-20T00:58:37;47.27;41.25;59.33;;
69611;Laerm;56817;52.302;4.844;2022-12-20T00:58:48;47.04;42.94;57.84;;
69611;Laerm;56817;52.302;4.844;2022-12-20T00:58:59;48.25;42.25;63.81;;
69611;Laerm;56817;52.302;4.844;2022-12-20T00:59:09;47.49;43.45;57.10;;
69611;Laerm;56817;52.302;4.844;2022-12-20T00:59:19;48.07;42.71;56.96;;
69611;Laerm;56817;52.302;4.844;2022-12-20T00:59:30;46.95;42.30;56.06;;
69611;Laerm;56817;52.302;4.844;2022-12-20T00:59:41;47.52;42.48;58.36;;
69611;Laerm;56817;52.302;4.844;2022-12-20T00:59:52;47.68;42.11;56.58;;
69611;Laerm;56817;52.302;4.844;2022-12-20T01:00:02;47.47;41.52;55.17;;
69611;Laerm;56817;52.302;4.844;2022-12-20T01:00:13;51.37;42.45;73.37;;
69611;Laerm;56817;52.302;4.844;2022-12-20T01:00:24;47.20;41.35;62.06;;